createdAt,value
2019-05-06T00:00:59.107Z,0.00
2019-05-06T00:01:54.374Z,0.00
2019-05-06T00:02:54.767Z,0.00
2019-05-06T00:03:54.623Z,0.00
2019-05-06T00:04:55.056Z,0.00
2019-05-06T00:05:55.506Z,0.00
2019-05-06T00:06:55.953Z,0.00
2019-05-06T00:07:56.214Z,0.00
2019-05-06T00:08:56.545Z,0.00
2019-05-06T00:09:57.011Z,0.00
2019-05-06T00:10:57.458Z,0.00
2019-05-06T00:11:57.958Z,0.00
2019-05-06T00:12:58.180Z,0.00
2019-05-06T00:13:58.668Z,0.00
2019-05-06T00:14:58.911Z,0.00
2019-05-06T00:15:59.367Z,0.00
2019-05-06T00:16:59.724Z,0.00
2019-05-06T00:17:59.974Z,0.00
2019-05-06T00:19:00.211Z,0.00
2019-05-06T00:20:00.637Z,0.00
2019-05-06T00:21:00.672Z,0.00
2019-05-06T00:22:00.962Z,0.00
2019-05-06T00:23:01.139Z,0.00
2019-05-06T00:24:03.769Z,0.00
2019-05-06T00:25:01.999Z,0.00
2019-05-06T00:26:04.026Z,0.00
2019-05-06T00:27:04.774Z,0.00
2019-05-06T00:28:05.825Z,0.00
2019-05-06T00:29:04.516Z,0.00
2019-05-06T00:30:04.503Z,0.00
2019-05-06T00:31:12.792Z,0.00
2019-05-06T00:32:04.467Z,0.00
2019-05-06T00:33:04.422Z,0.00
2019-05-06T00:34:04.451Z,0.00
2019-05-06T00:35:04.596Z,0.00
2019-05-06T00:36:04.869Z,0.00
2019-05-06T00:37:04.706Z,0.00
2019-05-06T00:38:04.976Z,0.00
2019-05-06T00:39:05.217Z,0.00
2019-05-06T00:40:05.589Z,0.00
2019-05-06T00:41:05.834Z,0.00
2019-05-06T00:42:05.789Z,0.00
2019-05-06T00:43:06.306Z,0.00
2019-05-06T00:44:06.384Z,0.00
2019-05-06T00:45:06.833Z,0.00
2019-05-06T00:46:07.328Z,0.00
2019-05-06T00:47:07.548Z,0.00
2019-05-06T00:48:07.810Z,0.00
2019-05-06T00:49:08.048Z,0.00
2019-05-06T00:50:08.312Z,0.00
2019-05-06T00:51:08.752Z,0.00
2019-05-06T00:52:08.999Z,0.00
2019-05-06T00:53:09.463Z,0.00
2019-05-06T00:54:09.874Z,0.00
2019-05-06T00:55:09.880Z,0.00
2019-05-06T00:56:10.132Z,0.00
2019-05-06T00:57:10.462Z,0.00
2019-05-06T00:58:10.947Z,0.00
2019-05-06T00:59:11.181Z,0.00
2019-05-06T01:00:13.473Z,0.00
2019-05-06T01:01:24.017Z,0.00
2019-05-06T01:02:14.050Z,0.00
2019-05-06T01:03:14.080Z,0.00
2019-05-06T01:04:13.909Z,0.00
2019-05-06T01:05:13.918Z,0.00
2019-05-06T01:06:14.222Z,0.00
2019-05-06T01:07:14.133Z,0.00
2019-05-06T01:08:14.278Z,0.00
2019-05-06T01:09:14.740Z,0.00
2019-05-06T01:10:15.036Z,0.00
2019-05-06T01:11:14.835Z,0.00
2019-05-06T01:12:14.805Z,0.00
2019-05-06T01:13:15.051Z,0.00
2019-05-06T01:14:15.243Z,0.00
2019-05-06T01:15:15.736Z,0.00
2019-05-06T01:16:15.897Z,0.00
2019-05-06T01:17:15.698Z,0.00
2019-05-06T01:18:16.031Z,0.00
2019-05-06T01:19:16.239Z,0.00
2019-05-06T01:20:16.810Z,0.00
2019-05-06T01:21:16.679Z,0.00
2019-05-06T01:22:16.926Z,0.00
2019-05-06T01:23:17.390Z,0.00
2019-05-06T01:24:17.828Z,0.00
2019-05-06T01:25:18.164Z,0.00
2019-05-06T01:26:18.412Z,0.00
2019-05-06T01:27:18.721Z,0.00
2019-05-06T01:28:19.204Z,0.00
2019-05-06T01:29:19.464Z,0.00
2019-05-06T01:30:19.847Z,0.00
2019-05-06T01:31:20.186Z,0.00
2019-05-06T01:32:20.679Z,0.00
2019-05-06T01:33:20.913Z,0.00
2019-05-06T01:34:21.401Z,0.00
2019-05-06T01:35:21.843Z,0.00
2019-05-06T01:36:22.088Z,0.00
2019-05-06T01:37:23.986Z,0.00
2019-05-06T01:38:24.285Z,0.00
2019-05-06T01:39:24.535Z,0.00
2019-05-06T01:40:23.901Z,0.00
2019-05-06T01:41:24.387Z,0.00
2019-05-06T01:42:24.622Z,0.00
2019-05-06T01:43:24.157Z,0.00
2019-05-06T01:45:24.486Z,0.00
2019-05-06T01:46:25.009Z,0.00
2019-05-06T01:47:24.757Z,0.00
2019-05-06T01:48:25.207Z,0.00
2019-05-06T01:49:25.154Z,0.00
2019-05-06T01:50:25.411Z,0.00
2019-05-06T01:51:25.932Z,0.00
2019-05-06T01:52:25.806Z,0.00
2019-05-06T01:53:26.240Z,0.00
2019-05-06T01:54:26.460Z,0.00
2019-05-06T01:55:26.690Z,0.00
2019-05-06T01:56:27.220Z,0.00
2019-05-06T01:57:27.038Z,0.00
2019-05-06T01:58:27.407Z,0.00
2019-05-06T01:59:27.879Z,0.00
2019-05-06T02:00:28.268Z,0.00
2019-05-06T02:01:28.680Z,0.00
2019-05-06T02:02:28.919Z,0.00
2019-05-06T02:03:29.169Z,0.00
2019-05-06T02:04:29.593Z,0.00
2019-05-06T02:05:30.127Z,0.00
2019-05-06T02:06:29.899Z,0.00
2019-05-06T02:07:30.037Z,0.00
2019-05-06T02:08:30.322Z,0.00
2019-05-06T02:09:30.675Z,0.00
2019-05-06T02:10:30.911Z,0.00
2019-05-06T02:11:33.617Z,0.00
2019-05-06T02:12:31.350Z,0.00
2019-05-06T02:13:31.859Z,0.00
2019-05-06T02:14:33.934Z,0.00
2019-05-06T02:15:32.009Z,0.00
2019-05-06T02:16:34.127Z,0.00
2019-05-06T02:17:34.357Z,0.00
2019-05-06T02:18:33.979Z,0.00
2019-05-06T02:19:34.747Z,0.00
2019-05-06T02:20:34.076Z,0.00
2019-05-06T02:22:34.616Z,0.00
2019-05-06T02:23:34.177Z,0.00
2019-05-06T02:24:34.189Z,0.00
2019-05-06T02:25:34.494Z,0.00
2019-05-06T02:26:34.691Z,0.00
2019-05-06T02:27:34.917Z,0.00
2019-05-06T02:28:35.171Z,0.00
2019-05-06T02:29:35.773Z,0.00
2019-05-06T02:30:36.717Z,0.00
2019-05-06T02:31:36.080Z,0.00
2019-05-06T02:32:36.590Z,0.00
2019-05-06T02:33:36.727Z,0.00
2019-05-06T02:34:36.865Z,0.00
2019-05-06T02:35:36.926Z,0.00
2019-05-06T02:36:37.320Z,0.00
2019-05-06T02:37:37.453Z,0.00
2019-05-06T02:38:46.872Z,0.00
2019-05-06T02:39:38.192Z,0.00
2019-05-06T02:40:38.642Z,0.00
2019-05-06T02:41:38.848Z,0.00
2019-05-06T02:42:39.175Z,0.00
2019-05-06T02:43:39.690Z,0.00
2019-05-06T02:44:39.639Z,0.00
2019-05-06T02:45:39.911Z,0.00
2019-05-06T02:46:40.131Z,0.00
2019-05-06T02:47:43.018Z,0.00
2019-05-06T02:48:43.259Z,0.00
2019-05-06T02:49:44.029Z,0.00
2019-05-06T02:50:42.716Z,0.00
2019-05-06T02:51:44.230Z,0.00
2019-05-06T02:52:44.141Z,0.00
2019-05-06T02:53:42.919Z,0.00
2019-05-06T02:54:42.774Z,0.00
2019-05-06T02:55:43.155Z,0.00
2019-05-06T02:56:43.532Z,0.00
2019-05-06T02:57:43.972Z,0.00
2019-05-06T02:58:43.815Z,0.00
2019-05-06T02:59:44.189Z,0.00
2019-05-06T03:00:43.808Z,0.00
2019-05-06T03:01:44.036Z,0.00
2019-05-06T03:02:48.005Z,0.00
2019-05-06T03:03:44.589Z,0.00
2019-05-06T03:04:44.810Z,0.00
2019-05-06T03:05:45.078Z,0.00
2019-05-06T03:06:45.302Z,0.00
2019-05-06T03:07:45.571Z,0.00
2019-05-06T03:08:46.074Z,0.00
2019-05-06T03:09:46.305Z,0.00
2019-05-06T03:10:46.768Z,1.00
2019-05-06T03:11:46.990Z,1.00
2019-05-06T03:12:47.217Z,1.00
2019-05-06T03:13:47.561Z,1.00
2019-05-06T03:14:47.814Z,1.00
2019-05-06T03:15:48.138Z,1.00
2019-05-06T03:16:48.649Z,2.00
2019-05-06T03:17:48.515Z,2.00
2019-05-06T03:18:48.544Z,2.00
2019-05-06T03:19:48.832Z,3.00
2019-05-06T03:20:49.104Z,3.00
2019-05-06T03:21:49.358Z,4.00
2019-05-06T03:22:49.751Z,5.00
2019-05-06T03:23:50.066Z,5.00
2019-05-06T03:24:50.562Z,6.00
2019-05-06T03:25:53.354Z,7.00
2019-05-06T03:26:56.110Z,8.00
2019-05-06T03:27:53.264Z,10.00
2019-05-06T03:28:53.609Z,11.00
2019-05-06T03:29:53.701Z,12.00
2019-05-06T03:30:56.518Z,15.00
2019-05-06T03:31:56.393Z,17.00
2019-05-06T03:33:23.492Z,20.00
2019-05-06T03:34:16.489Z,23.00
2019-05-06T03:35:16.629Z,26.00
2019-05-06T03:36:06.595Z,30.00
2019-05-06T03:36:56.004Z,34.00
2019-05-06T03:37:54.855Z,40.00
2019-05-06T03:38:55.119Z,45.00
2019-05-06T03:39:54.897Z,51.00
2019-05-06T03:40:55.389Z,59.00
2019-05-06T03:41:55.321Z,67.00
2019-05-06T03:42:55.569Z,75.00
2019-05-06T03:43:55.806Z,86.00
2019-05-06T03:44:56.061Z,96.00
2019-05-06T03:45:56.169Z,108.00
2019-05-06T03:46:56.732Z,121.00
2019-05-06T03:47:56.927Z,135.00
2019-05-06T03:48:56.894Z,151.00
2019-05-06T03:49:57.154Z,168.00
2019-05-06T03:50:57.382Z,186.00
2019-05-06T03:51:57.886Z,205.00
2019-05-06T03:52:58.115Z,225.00
2019-05-06T03:53:58.533Z,244.00
2019-05-06T03:54:58.478Z,266.00
2019-05-06T03:55:58.991Z,289.00
2019-05-06T03:56:59.241Z,312.00
2019-05-06T03:57:59.097Z,337.00
2019-05-06T03:58:59.177Z,363.00
2019-05-06T03:59:59.641Z,391.00
2019-05-06T04:00:59.519Z,419.00
2019-05-06T04:01:59.564Z,449.00
2019-05-06T04:03:02.877Z,481.00
2019-05-06T04:04:03.316Z,514.00
2019-05-06T04:05:03.597Z,548.00
2019-05-06T04:06:03.798Z,582.00
2019-05-06T04:07:03.341Z,619.00
2019-05-06T04:08:03.842Z,655.00
2019-05-06T04:09:03.715Z,694.00
2019-05-06T04:10:03.582Z,734.00
2019-05-06T04:11:03.206Z,774.00
2019-05-06T04:12:03.537Z,813.00
2019-05-06T04:13:04.156Z,852.00
2019-05-06T04:14:03.002Z,891.00
2019-05-06T04:15:03.919Z,932.00
2019-05-06T04:16:03.743Z,974.00
2019-05-06T04:17:03.489Z,1013.00
2019-05-06T04:18:04.053Z,1060.00
2019-05-06T04:19:04.250Z,1103.00
2019-05-06T04:20:04.191Z,1147.00
2019-05-06T04:21:03.926Z,1195.00
2019-05-06T04:22:03.964Z,1236.00
2019-05-06T04:23:06.366Z,1282.00
2019-05-06T04:24:04.492Z,1328.00
2019-05-06T04:25:04.723Z,1379.00
2019-05-06T04:26:05.605Z,1425.00
2019-05-06T04:27:05.006Z,1476.00
2019-05-06T04:28:04.958Z,1532.00
2019-05-06T04:29:05.240Z,1581.00
2019-05-06T04:30:05.630Z,1632.00
2019-05-06T04:31:05.876Z,1685.00
2019-05-06T04:32:06.354Z,1733.00
2019-05-06T04:33:06.614Z,1780.00
2019-05-06T04:34:14.071Z,1829.00
2019-05-06T04:35:07.316Z,1871.00
2019-05-06T04:36:07.779Z,1920.00
2019-05-06T04:37:09.029Z,1968.00
2019-05-06T04:38:08.320Z,2015.00
2019-05-06T04:39:08.891Z,2068.00
2019-05-06T04:40:09.146Z,2112.00
2019-05-06T04:41:09.474Z,2154.00
2019-05-06T04:42:09.973Z,2204.00
2019-05-06T04:43:13.183Z,2252.00
2019-05-06T04:44:13.540Z,2304.00
2019-05-06T04:45:16.655Z,2359.00
2019-05-06T04:46:13.650Z,2420.00
2019-05-06T04:47:14.707Z,2479.00
2019-05-06T04:48:14.434Z,2545.00
2019-05-06T04:49:15.044Z,2611.00
2019-05-06T04:50:13.398Z,2680.00
2019-05-06T04:51:13.718Z,2744.00
2019-05-06T04:53:13.873Z,2846.00
2019-05-06T04:54:13.924Z,2889.00
2019-05-06T04:55:14.481Z,2939.00
2019-05-06T04:56:14.566Z,2984.00
2019-05-06T04:57:14.968Z,3022.00
2019-05-06T04:58:14.965Z,3054.00
2019-05-06T04:59:15.202Z,3068.00
2019-05-06T05:00:15.715Z,3086.00
2019-05-06T05:01:16.012Z,3123.00
2019-05-06T05:02:15.922Z,3166.00
2019-05-06T05:03:16.131Z,3215.00
2019-05-06T05:04:27.759Z,3269.00
2019-05-06T05:05:16.808Z,3324.00
2019-05-06T05:06:17.193Z,3373.00
2019-05-06T05:07:17.432Z,3425.00
2019-05-06T05:08:17.883Z,3481.00
2019-05-06T05:09:18.244Z,3528.00
2019-05-06T05:10:18.574Z,3562.00
2019-05-06T05:11:18.783Z,3600.00
2019-05-06T05:12:18.900Z,3628.00
2019-05-06T05:13:18.969Z,3646.00
2019-05-06T05:14:24.776Z,3661.00
2019-05-06T05:15:19.696Z,3679.00
2019-05-06T05:16:21.772Z,3703.00
2019-05-06T05:17:22.335Z,3730.00
2019-05-06T05:18:22.219Z,3755.00
2019-05-06T05:19:23.088Z,3776.00
2019-05-06T05:20:36.472Z,3801.00
2019-05-06T05:21:22.895Z,3837.00
2019-05-06T05:22:22.003Z,3870.00
2019-05-06T05:23:22.901Z,3908.00
2019-05-06T05:24:23.509Z,3950.00
2019-05-06T05:25:22.664Z,3994.00
2019-05-06T05:26:22.913Z,4037.00
2019-05-06T05:27:23.334Z,4077.00
2019-05-06T05:28:23.791Z,4103.00
2019-05-06T05:29:24.048Z,4125.00
2019-05-06T05:30:24.571Z,4147.00
2019-05-06T05:31:24.432Z,4161.00
2019-05-06T05:32:26.779Z,4180.00
2019-05-06T05:33:24.693Z,4204.00
2019-05-06T05:34:37.064Z,4234.00
2019-05-06T05:35:25.219Z,4260.00
2019-05-06T05:36:25.703Z,4294.00
2019-05-06T05:37:25.915Z,4322.00
2019-05-06T05:38:26.143Z,4358.00
2019-05-06T05:39:26.364Z,4391.00
2019-05-06T05:40:26.709Z,4427.00
2019-05-06T05:41:26.921Z,4464.00
2019-05-06T05:42:27.198Z,4504.00
2019-05-06T05:43:27.634Z,4541.00
2019-05-06T05:44:27.923Z,4588.00
2019-05-06T05:45:28.083Z,4629.00
2019-05-06T05:46:28.658Z,4653.00
2019-05-06T05:47:28.798Z,4671.00
2019-05-06T05:48:29.037Z,4675.00
2019-05-06T05:49:29.289Z,4619.00
2019-05-06T05:50:29.307Z,4662.00
2019-05-06T05:51:29.517Z,4768.00
2019-05-06T05:52:29.972Z,4871.00
2019-05-06T05:53:32.834Z,4922.00
2019-05-06T05:54:32.990Z,4930.00
2019-05-06T05:55:33.007Z,4889.00
2019-05-06T05:56:33.029Z,4832.00
2019-05-06T05:57:32.244Z,4812.00
2019-05-06T05:58:33.033Z,4834.00
2019-05-06T05:59:32.906Z,4929.00
2019-05-06T06:00:32.554Z,4987.00
2019-05-06T06:01:32.793Z,4992.00
2019-05-06T06:02:33.262Z,4989.00
2019-05-06T06:03:32.888Z,5004.00
2019-05-06T06:04:33.390Z,5029.00
2019-05-06T06:05:33.352Z,5054.00
2019-05-06T06:06:33.776Z,5077.00
2019-05-06T06:07:34.257Z,5102.00
2019-05-06T06:08:36.882Z,5137.00
2019-05-06T06:09:34.995Z,5162.00
2019-05-06T06:10:34.974Z,5184.00
2019-05-06T06:11:35.446Z,5209.00
2019-05-06T06:12:35.685Z,5220.00
2019-05-06T06:13:36.138Z,5239.00
2019-05-06T06:14:36.502Z,5264.00
2019-05-06T06:15:36.539Z,5288.00
2019-05-06T06:16:36.925Z,5303.00
2019-05-06T06:17:37.053Z,5314.00
2019-05-06T06:18:37.100Z,5336.00
2019-05-06T06:19:37.319Z,5361.00
2019-05-06T06:20:37.573Z,5373.00
2019-05-06T06:21:37.621Z,5381.00
2019-05-06T06:22:37.809Z,5403.00
2019-05-06T06:23:38.059Z,5446.00
2019-05-06T06:24:38.287Z,5506.00
2019-05-06T06:25:38.788Z,5558.00
2019-05-06T06:26:39.207Z,5588.00
2019-05-06T06:27:39.600Z,5614.00
2019-05-06T06:28:39.534Z,5640.00
2019-05-06T06:29:41.700Z,5673.00
2019-05-06T06:30:40.018Z,5713.00
2019-05-06T06:31:42.680Z,5712.00
2019-05-06T06:32:41.936Z,5727.00
2019-05-06T06:33:42.875Z,5760.00
2019-05-06T06:34:42.704Z,5786.00
2019-05-06T06:35:42.646Z,5828.00
2019-05-06T06:36:42.281Z,5854.00
2019-05-06T06:37:42.782Z,5854.00
2019-05-06T06:38:42.984Z,5886.00
2019-05-06T06:39:43.081Z,5991.00
2019-05-06T06:40:44.214Z,6127.00
2019-05-06T06:41:43.442Z,6124.00
2019-05-06T06:42:43.702Z,6037.00
2019-05-06T06:43:43.946Z,6029.00
2019-05-06T06:44:44.428Z,6091.00
2019-05-06T06:45:44.652Z,6372.00
2019-05-06T06:47:44.921Z,7044.00
2019-05-06T06:48:45.340Z,7439.00
2019-05-06T06:49:45.783Z,7473.00
2019-05-06T06:50:46.166Z,7462.00
2019-05-06T06:51:46.141Z,7383.00
2019-05-06T06:52:46.366Z,7303.00
2019-05-06T06:53:46.827Z,7200.00
2019-05-06T06:54:47.052Z,7124.00
2019-05-06T06:55:47.328Z,7030.00
2019-05-06T06:56:47.600Z,6903.00
2019-05-06T06:57:47.953Z,6925.00
2019-05-06T06:58:48.358Z,6950.00
2019-05-06T06:59:48.291Z,6943.00
2019-05-06T07:00:48.629Z,6647.00
2019-05-06T07:01:48.655Z,6612.00
2019-05-06T07:02:48.719Z,6683.00
2019-05-06T07:03:48.936Z,6756.00
2019-05-06T07:04:49.441Z,7171.00
2019-05-06T07:05:49.775Z,7594.00
2019-05-06T07:06:49.903Z,7857.00
2019-05-06T07:07:49.780Z,8068.00
2019-05-06T07:08:51.787Z,8298.00
2019-05-06T07:09:50.214Z,8298.00
2019-05-06T07:10:52.416Z,8211.00
2019-05-06T07:11:52.561Z,8244.00
2019-05-06T07:12:53.183Z,9018.00
2019-05-06T07:13:52.891Z,9469.00
2019-05-06T07:14:52.308Z,10073.00
2019-05-06T07:15:52.129Z,10604.00
2019-05-06T07:16:53.358Z,10618.00
2019-05-06T07:17:52.471Z,10765.00
2019-05-06T07:18:52.702Z,10332.00
2019-05-06T07:19:52.830Z,9964.00
2019-05-06T07:20:52.866Z,9708.00
2019-05-06T07:21:53.122Z,9964.00
2019-05-06T07:22:53.240Z,10491.00
2019-05-06T07:23:53.636Z,10342.00
2019-05-06T07:24:54.029Z,10450.00
2019-05-06T07:25:54.429Z,10216.00
2019-05-06T07:26:54.862Z,9804.00
2019-05-06T07:27:54.915Z,9826.00
2019-05-06T07:28:55.212Z,9982.00
2019-05-06T07:29:55.493Z,10171.00
2019-05-06T07:30:55.984Z,9881.00
2019-05-06T07:31:56.210Z,10178.00
2019-05-06T07:32:56.598Z,10068.00
2019-05-06T07:33:59.908Z,10003.00
2019-05-06T07:34:57.198Z,10453.00
2019-05-06T07:35:57.508Z,10685.00
2019-05-06T07:36:57.778Z,11022.00
2019-05-06T07:37:58.000Z,11234.00
2019-05-06T07:38:58.630Z,11167.00
2019-05-06T07:39:59.026Z,10741.00
2019-05-06T07:40:59.430Z,10571.00
2019-05-06T07:41:59.349Z,10423.00
2019-05-06T07:43:01.743Z,11340.00
2019-05-06T07:44:02.018Z,11597.00
2019-05-06T07:45:00.200Z,11563.00
2019-05-06T07:46:02.524Z,11747.00
2019-05-06T07:47:03.366Z,12299.00
2019-05-06T07:48:03.403Z,13069.00
2019-05-06T07:49:03.310Z,14114.00
2019-05-06T07:50:02.576Z,14273.00
2019-05-06T07:51:03.094Z,14206.00
2019-05-06T07:52:02.986Z,14579.00
2019-05-06T07:53:02.609Z,13871.00
2019-05-06T07:54:02.919Z,13376.00
2019-05-06T07:55:02.751Z,12658.00
2019-05-06T07:56:03.663Z,13173.00
2019-05-06T07:57:02.711Z,12793.00
2019-05-06T07:58:02.993Z,12430.00
2019-05-06T07:59:03.233Z,11429.00
2019-05-06T08:00:03.625Z,9776.00
2019-05-06T08:01:03.067Z,9148.00
2019-05-06T08:02:03.595Z,9316.00
2019-05-06T08:03:03.615Z,9623.00
2019-05-06T08:04:03.677Z,8715.00
2019-05-06T08:05:03.551Z,8363.00
2019-05-06T08:06:04.093Z,8409.00
2019-05-06T08:07:04.125Z,8569.00
2019-05-06T08:08:04.171Z,8671.00
2019-05-06T08:09:04.211Z,8664.00
2019-05-06T08:10:04.411Z,8158.00
2019-05-06T08:11:04.812Z,7779.00
2019-05-06T08:12:05.049Z,7364.00
2019-05-06T08:13:05.431Z,7117.00
2019-05-06T08:14:05.676Z,6971.00
2019-05-06T08:15:06.302Z,7213.00
2019-05-06T08:16:06.393Z,7522.00
2019-05-06T08:17:06.863Z,7676.00
2019-05-06T08:18:06.826Z,7928.00
2019-05-06T08:19:07.088Z,8443.00
2019-05-06T08:20:07.364Z,9560.00
2019-05-06T08:21:07.780Z,10751.00
2019-05-06T08:22:07.602Z,10889.00
2019-05-06T08:23:08.024Z,10542.00
2019-05-06T08:24:08.537Z,10783.00
2019-05-06T08:25:08.769Z,11273.00
2019-05-06T08:26:13.058Z,11413.00
2019-05-06T08:27:09.674Z,11265.00
2019-05-06T08:28:09.905Z,11142.00
2019-05-06T08:29:12.132Z,11074.00
2019-05-06T08:30:12.736Z,11302.00
2019-05-06T08:31:12.661Z,12719.00
2019-05-06T08:32:12.253Z,13419.00
2019-05-06T08:33:12.899Z,65536.00
2019-05-06T08:34:12.264Z,65536.00
2019-05-06T08:35:13.395Z,16050.00
2019-05-06T08:36:14.832Z,65536.00
2019-05-06T08:37:12.865Z,65536.00
2019-05-06T08:38:13.118Z,65536.00
2019-05-06T08:39:13.413Z,65536.00
2019-05-06T08:40:13.922Z,65536.00
2019-05-06T08:41:13.651Z,65536.00
2019-05-06T08:42:13.900Z,65536.00
2019-05-06T08:43:14.100Z,16418.00
2019-05-06T08:44:14.458Z,16014.00
2019-05-06T08:45:15.039Z,15756.00
2019-05-06T08:46:14.780Z,14904.00
2019-05-06T08:47:15.031Z,13933.00
2019-05-06T08:48:15.325Z,13484.00
2019-05-06T08:49:15.549Z,13533.00
2019-05-06T08:50:16.100Z,13894.00
2019-05-06T08:51:16.031Z,14426.00
2019-05-06T08:52:16.139Z,14689.00
2019-05-06T08:53:16.484Z,15006.00
2019-05-06T08:54:16.497Z,65536.00
2019-05-06T08:55:16.844Z,13540.00
2019-05-06T08:56:16.772Z,13669.00
2019-05-06T08:57:17.394Z,13817.00
2019-05-06T08:58:17.821Z,14070.00
2019-05-06T08:59:18.162Z,14317.00
2019-05-06T09:00:18.425Z,13788.00
2019-05-06T09:01:18.891Z,13498.00
2019-05-06T09:02:19.108Z,14032.00
2019-05-06T09:03:19.540Z,14466.00
2019-05-06T09:04:19.777Z,16467.00
2019-05-06T09:05:22.157Z,65536.00
2019-05-06T09:06:29.742Z,65536.00
2019-05-06T09:07:20.777Z,65536.00
2019-05-06T09:08:22.732Z,65536.00
2019-05-06T09:09:22.399Z,65536.00
2019-05-06T09:10:22.676Z,65536.00
2019-05-06T09:11:25.611Z,65536.00
2019-05-06T09:12:22.380Z,15932.00
2019-05-06T09:13:23.169Z,14880.00
2019-05-06T09:14:23.354Z,14220.00
2019-05-06T09:15:23.150Z,12874.00
2019-05-06T09:16:23.104Z,11465.00
2019-05-06T09:17:23.323Z,10092.00
2019-05-06T09:18:24.209Z,8977.00
2019-05-06T09:19:24.275Z,8660.00
2019-05-06T09:20:24.622Z,9107.00
2019-05-06T09:21:24.955Z,9914.00
2019-05-06T09:22:25.321Z,10597.00
2019-05-06T09:23:27.556Z,11134.00
2019-05-06T09:24:25.972Z,11707.00
2019-05-06T09:25:26.203Z,11819.00
2019-05-06T09:26:26.566Z,11964.00
2019-05-06T09:27:26.835Z,12500.00
2019-05-06T09:28:27.392Z,12952.00
2019-05-06T09:29:27.972Z,13359.00
2019-05-06T09:30:28.232Z,12909.00
2019-05-06T09:31:28.652Z,12965.00
2019-05-06T09:32:28.914Z,14082.00
2019-05-06T09:33:29.434Z,15419.00
2019-05-06T09:34:32.484Z,16360.00
2019-05-06T09:35:30.072Z,15881.00
2019-05-06T09:36:41.327Z,14358.00
2019-05-06T09:37:32.501Z,12944.00
2019-05-06T09:38:32.179Z,12317.00
2019-05-06T09:39:32.228Z,12263.00
2019-05-06T09:40:31.872Z,12353.00
2019-05-06T09:41:32.472Z,12355.00
2019-05-06T09:42:32.208Z,12310.00
2019-05-06T09:43:32.851Z,12186.00
2019-05-06T09:44:33.153Z,12097.00
2019-05-06T09:46:33.275Z,11551.00
2019-05-06T09:47:33.681Z,10769.00
2019-05-06T09:48:33.965Z,10621.00
2019-05-06T09:49:33.946Z,10947.00
2019-05-06T09:50:34.120Z,11614.00
2019-05-06T09:51:34.566Z,12260.00
2019-05-06T09:52:34.820Z,12914.00
2019-05-06T09:54:35.102Z,14435.00
2019-05-06T09:55:35.544Z,15169.00
2019-05-06T09:56:35.941Z,15728.00
2019-05-06T09:57:35.853Z,16429.00
2019-05-06T09:58:36.264Z,65536.00
2019-05-06T09:59:36.280Z,65536.00
2019-05-06T10:00:36.504Z,65536.00
2019-05-06T10:01:36.950Z,65536.00
2019-05-06T10:02:37.198Z,65536.00
2019-05-06T10:03:37.474Z,65536.00
2019-05-06T10:04:37.765Z,65536.00
2019-05-06T10:05:37.983Z,65536.00
2019-05-06T10:06:38.279Z,65536.00
2019-05-06T10:07:38.707Z,65536.00
2019-05-06T10:08:38.619Z,65536.00
2019-05-06T10:09:39.333Z,65536.00
2019-05-06T10:10:52.480Z,65536.00
2019-05-06T10:11:42.214Z,65536.00
2019-05-06T10:12:42.034Z,65536.00
2019-05-06T10:13:42.940Z,65536.00
2019-05-06T10:14:43.308Z,65536.00
2019-05-06T10:15:42.852Z,65536.00
2019-05-06T10:16:43.056Z,65536.00
2019-05-06T10:17:42.871Z,65536.00
2019-05-06T10:18:42.407Z,65536.00
2019-05-06T10:19:43.130Z,65536.00
2019-05-06T10:20:43.257Z,65536.00
2019-05-06T10:21:43.603Z,65536.00
2019-05-06T10:22:43.956Z,65536.00
2019-05-06T10:23:44.217Z,65536.00
2019-05-06T10:24:44.447Z,65536.00
2019-05-06T10:25:44.682Z,65536.00
2019-05-06T10:26:44.925Z,65536.00
2019-05-06T10:27:45.380Z,65536.00
2019-05-06T10:28:45.491Z,65536.00
2019-05-06T10:29:45.586Z,65536.00
2019-05-06T10:30:45.924Z,65536.00
2019-05-06T10:31:46.167Z,65536.00
2019-05-06T10:32:46.616Z,65536.00
2019-05-06T10:33:46.857Z,65536.00
2019-05-06T10:34:47.278Z,65536.00
2019-05-06T10:35:50.425Z,65536.00
2019-05-06T10:36:47.884Z,65536.00
2019-05-06T10:37:47.757Z,65536.00
2019-05-06T10:38:48.202Z,65536.00
2019-05-06T10:39:48.373Z,16827.00
2019-05-06T10:41:00.974Z,16411.00
2019-05-06T10:41:49.009Z,16229.00
2019-05-06T10:42:49.309Z,16372.00
2019-05-06T10:43:52.411Z,16563.00
2019-05-06T10:44:49.785Z,16329.00
2019-05-06T10:45:52.066Z,16013.00
2019-05-06T10:46:52.804Z,16325.00
2019-05-06T10:47:50.762Z,16814.00
2019-05-06T10:48:53.040Z,17136.00
2019-05-06T10:49:52.962Z,16706.00
2019-05-06T10:50:52.125Z,16379.00
2019-05-06T10:51:52.988Z,65536.00
2019-05-06T10:52:51.926Z,65536.00
2019-05-06T10:53:52.130Z,65536.00
2019-05-06T10:54:52.329Z,65536.00
2019-05-06T10:55:53.644Z,65536.00
2019-05-06T10:56:57.070Z,65536.00
2019-05-06T10:57:53.184Z,65536.00
2019-05-06T10:58:53.176Z,65536.00
2019-05-06T10:59:53.512Z,65536.00
2019-05-06T11:00:53.497Z,65536.00
2019-05-06T11:01:53.820Z,65536.00
2019-05-06T11:02:54.318Z,65536.00
2019-05-06T11:03:54.358Z,65536.00
2019-05-06T11:04:54.827Z,65536.00
2019-05-06T11:05:55.289Z,65536.00
2019-05-06T11:06:55.012Z,65536.00
2019-05-06T11:07:55.498Z,65536.00
2019-05-06T11:08:55.805Z,65536.00
2019-05-06T11:09:56.043Z,15857.00
2019-05-06T11:10:56.275Z,13359.00
2019-05-06T11:11:56.679Z,11822.00
2019-05-06T11:12:56.919Z,10693.00
2019-05-06T11:13:57.257Z,10097.00
2019-05-06T11:14:57.676Z,9684.00
2019-05-06T11:15:57.978Z,9368.00
2019-05-06T11:16:58.359Z,9042.00
2019-05-06T11:17:58.725Z,8762.00
2019-05-06T11:18:58.960Z,8482.00
2019-05-06T11:19:59.439Z,7910.00
2019-05-06T11:20:59.756Z,7661.00
2019-05-06T11:21:59.966Z,7558.00
2019-05-06T11:23:02.084Z,7478.00
2019-05-06T11:24:00.780Z,7514.00
2019-05-06T11:25:02.938Z,7719.00
2019-05-06T11:26:03.007Z,8129.00
2019-05-06T11:27:03.383Z,8632.00
2019-05-06T11:28:02.999Z,9160.00
2019-05-06T11:29:05.246Z,9631.00
2019-05-06T11:30:02.648Z,10129.00
2019-05-06T11:31:02.816Z,10669.00
2019-05-06T11:32:03.290Z,11327.00
2019-05-06T11:33:04.757Z,12159.00
2019-05-06T11:34:03.580Z,12675.00
2019-05-06T11:35:03.935Z,13069.00
2019-05-06T11:36:04.069Z,13499.00
2019-05-06T11:37:04.217Z,13816.00
2019-05-06T11:38:04.309Z,14401.00
2019-05-06T11:39:04.718Z,14838.00
2019-05-06T11:40:04.745Z,14997.00
2019-05-06T11:41:04.818Z,15583.00
2019-05-06T11:42:23.917Z,65536.00
2019-05-06T11:43:05.019Z,65536.00
2019-05-06T11:44:08.887Z,65536.00
2019-05-06T11:45:05.715Z,65536.00
2019-05-06T11:46:06.001Z,65536.00
2019-05-06T11:47:06.389Z,65536.00
2019-05-06T11:48:06.595Z,65536.00
2019-05-06T11:49:06.860Z,65536.00
2019-05-06T11:50:07.304Z,65536.00
2019-05-06T11:51:07.483Z,65536.00
2019-05-06T11:52:07.567Z,65536.00
2019-05-06T11:53:08.010Z,65536.00
2019-05-06T11:54:19.434Z,65536.00
2019-05-06T11:55:08.726Z,65536.00
2019-05-06T11:56:08.962Z,65536.00
2019-05-06T11:57:09.400Z,65536.00
2019-05-06T11:58:09.452Z,65536.00
2019-05-06T11:59:09.636Z,65536.00
2019-05-06T12:00:10.355Z,65536.00
2019-05-06T12:01:09.868Z,65536.00
2019-05-06T12:02:12.603Z,65536.00
2019-05-06T12:03:12.671Z,65536.00
2019-05-06T12:04:14.160Z,65536.00
2019-05-06T12:05:11.355Z,65536.00
2019-05-06T12:06:13.101Z,65536.00
2019-05-06T12:07:15.477Z,65536.00
2019-05-06T12:08:15.619Z,65536.00
2019-05-06T12:09:16.567Z,65536.00
2019-05-06T12:10:13.104Z,65536.00
2019-05-06T12:11:13.100Z,65536.00
2019-05-06T12:12:13.335Z,65536.00
2019-05-06T12:13:13.847Z,65536.00
2019-05-06T12:14:13.625Z,65536.00
2019-05-06T12:15:14.224Z,65536.00
2019-05-06T12:16:14.418Z,65536.00
2019-05-06T12:17:14.380Z,65536.00
2019-05-06T12:18:14.638Z,65536.00
2019-05-06T12:19:15.038Z,65536.00
2019-05-06T12:20:15.659Z,65536.00
2019-05-06T12:21:19.160Z,65536.00
2019-05-06T12:22:15.791Z,65536.00
2019-05-06T12:23:16.034Z,65536.00
2019-05-06T12:24:16.386Z,65536.00
2019-05-06T12:25:23.324Z,65536.00
2019-05-06T12:26:16.938Z,65536.00
2019-05-06T12:27:17.398Z,65536.00
2019-05-06T12:28:17.709Z,65536.00